Time;durP1;ratioP1;P1;durP2;ratioP2;P2;SDS_P1;SDS_P2;PMS_P1;PMS_P2;Temp;Humidity;BMP_temperature;BMP_pressure;BME280_temperature;BME280_humidity;BME280_pressure;Samples;Min_cycle;Max_cycle;Signal;HPM_P1;HPM_P2
2024/04/12 00:01:01;;;;;;;4.43;2.80;;;;;;;;;;5424303;26;20213;-84
2024/04/12 00:03:31;;;;;;;6.10;2.80;;;5.40;99.90;;;;;;5422734;26;20241;-87
2024/04/12 00:06:00;;;;;;;4.27;2.70;;;5.30;99.90;;;;;;5424642;26;20681;-86
2024/04/12 00:08:30;;;;;;;3.60;2.57;;;;;;;;;;5423042;26;20260;-87
2024/04/12 00:10:56;;;;;;;6.47;2.73;;;;;;;;;;5426736;26;20213;-87
2024/04/12 00:13:26;;;;;;;6.63;2.80;;;5.30;99.90;;;;;;5427747;26;20222;-85
2024/04/12 00:15:55;;;;;;;5.47;2.93;;;;;;;;;;5428317;26;20287;-86
2024/04/12 00:18:28;;;;;;;6.10;2.73;;;5.30;99.90;;;;;;5426211;26;20768;-88
2024/04/12 00:20:58;;;;;;;5.43;2.80;;;5.30;99.90;;;;;;5430637;26;20285;-85
2024/04/12 00:23:28;;;;;;;3.70;2.43;;;5.20;99.90;;;;;;5435769;26;20225;-84
2024/04/12 00:25:55;;;;;;;5.90;3.03;;;5.10;99.90;;;;;;5440725;26;20256;-82
2024/04/12 00:28:25;;;;;;;5.73;2.80;;;5.10;99.90;;;;;;5434313;26;20217;-88
2024/04/12 00:30:51;;;;;;;6.07;3.00;;;5.00;99.90;;;;;;5428924;26;20599;-85
2024/04/12 00:33:20;;;;;;;5.13;3.17;;;;;;;;;;5425482;26;20241;-86
2024/04/12 00:35:54;;;;;;;4.03;2.57;;;4.90;99.90;;;;;;5425792;26;20249;-86
2024/04/12 00:38:23;;;;;;;5.47;2.90;;;;;;;;;;5427943;26;20264;-85
2024/04/12 00:40:52;;;;;;;4.83;2.87;;;;;;;;;;5426552;26;20225;-86
2024/04/12 00:43:27;;;;;;;4.33;2.40;;;4.90;99.90;;;;;;5425740;26;20304;-86
2024/04/12 00:45:54;;;;;;;5.37;2.77;;;4.90;99.90;;;;;;5425556;26;20304;-87
2024/04/12 00:48:25;;;;;;;3.53;2.80;;;4.90;99.90;;;;;;5428519;26;20182;-85
2024/04/12 00:50:54;;;;;;;4.50;2.80;;;4.90;99.90;;;;;;5428751;26;20683;-85
2024/04/12 00:53:28;;;;;;;4.13;2.50;;;4.90;99.90;;;;;;5426826;26;20264;-86
2024/04/12 00:56:00;;;;;;;4.17;2.77;;;4.90;99.90;;;;;;5425249;26;20229;-85
2024/04/12 00:58:32;;;;;;;3.87;2.57;;;4.80;99.90;;;;;;5424811;26;20217;-86
2024/04/12 01:01:10;;;;;;;5.33;2.57;;;;;;;;;;5426837;26;20193;-85
2024/04/12 01:03:45;;;;;;;6.67;2.77;;;4.80;99.90;;;;;;5424960;26;20745;-85
2024/04/12 01:06:15;;;;;;;3.70;2.57;;;4.80;99.90;;;;;;5424841;26;20233;-84
2024/04/12 01:08:46;;;;;;;6.40;3.23;;;4.70;99.90;;;;;;5426225;26;20793;-85
2024/04/12 01:11:13;;;;;;;4.43;2.77;;;4.80;99.90;;;;;;5424870;26;20222;-88
2024/04/12 01:13:42;;;;;;;5.40;2.77;;;4.80;99.90;;;;;;5424678;26;20233;-86
2024/04/12 01:16:10;;;;;;;7.33;2.73;;;;;;;;;;5426109;26;20252;-87
2024/04/12 01:18:39;;;;;;;4.87;2.77;;;4.70;99.90;;;;;;5425634;26;20225;-84
2024/04/12 01:21:10;;;;;;;4.87;2.67;;;;;;;;;;5426773;26;20217;-86
2024/04/12 01:23:43;;;;;;;4.10;2.70;;;4.60;99.90;;;;;;5426762;26;20178;-87
2024/04/12 01:26:12;;;;;;;4.73;2.80;;;4.60;99.90;;;;;;5425399;26;20677;-85
2024/04/12 01:28:42;;;;;;;5.37;2.90;;;4.50;99.90;;;;;;5425719;26;20268;-86
2024/04/12 01:31:08;;;;;;;5.63;2.67;;;;;;;;;;5426708;26;20263;-86
2024/04/12 01:33:37;;;;;;;4.33;3.07;;;4.60;99.90;;;;;;5424361;26;20256;-85
2024/04/12 01:36:05;;;;;;;4.43;2.67;;;4.70;99.90;;;;;;5426725;26;20218;-85
2024/04/12 01:38:36;;;;;;;6.20;3.00;;;4.70;99.90;;;;;;5426871;26;20221;-86
2024/04/12 01:41:05;;;;;;;6.33;2.63;;;4.70;99.90;;;;;;5425414;26;20217;-87
2024/04/12 01:43:38;;;;;;;4.17;2.80;;;4.70;99.90;;;;;;5424659;26;20277;-85
2024/04/12 01:46:07;;;;;;;5.97;2.87;;;4.70;99.90;;;;;;5424196;26;20237;-86
2024/04/12 01:48:36;;;;;;;4.70;3.17;;;4.70;99.90;;;;;;5422435;26;20306;-84
2024/04/12 01:51:02;;;;;;;4.43;3.20;;;4.70;99.90;;;;;;5421263;26;20248;-89
2024/04/12 01:53:36;;;;;;;4.03;3.00;;;4.60;99.90;;;;;;5424422;26;20213;-87
2024/04/12 01:56:04;;;;;;;3.67;2.90;;;4.60;99.90;;;;;;5425405;26;20268;-86
2024/04/12 01:58:34;;;;;;;4.93;3.40;;;4.60;99.90;;;;;;5426555;26;20746;-85
2024/04/12 02:01:02;;;;;;;6.47;3.70;;;4.60;99.90;;;;;;5426000;26;20222;-86
2024/04/12 02:03:32;;;;;;;4.23;3.27;;;4.50;99.90;;;;;;5426051;26;20221;-85
2024/04/12 02:06:04;;;;;;;5.30;3.30;;;4.60;99.90;;;;;;5423371;26;20264;-84
2024/04/12 02:08:35;;;;;;;5.17;3.43;;;4.60;99.90;;;;;;5425867;26;20185;-85
2024/04/12 02:11:05;;;;;;;6.20;3.80;;;4.60;99.90;;;;;;5425538;26;20648;-86
2024/04/12 02:13:39;;;;;;;7.43;3.90;;;4.50;99.90;;;;;;5426361;26;20380;-84
2024/04/12 02:16:10;;;;;;;5.70;4.67;;;4.50;99.90;;;;;;5425625;26;20221;-84
2024/04/12 02:18:44;;;;;;;5.33;3.63;;;4.40;99.90;;;;;;5426100;26;20213;-87
2024/04/12 02:21:10;;;;;;;6.37;3.60;;;4.40;99.90;;;;;;5436330;26;20673;-87
2024/04/12 02:23:43;;;;;;;5.77;3.90;;;4.30;99.90;;;;;;5427819;26;20317;-86
2024/04/12 02:26:09;;;;;;;5.80;3.67;;;4.50;99.90;;;;;;5423833;26;20339;-87
2024/04/12 02:28:40;;;;;;;4.70;3.63;;;;;;;;;;5423551;26;20290;-85
2024/04/12 02:31:08;;;;;;;7.00;3.67;;;4.40;99.90;;;;;;5423471;26;20222;-87
2024/04/12 02:33:37;;;;;;;4.57;3.60;;;4.50;99.90;;;;;;5430278;26;20293;-84
2024/04/12 02:36:11;;;;;;;4.43;3.47;;;4.40;99.90;;;;;;5439446;26;20241;-80
2024/04/12 02:38:40;;;;;;;7.10;3.90;;;4.40;99.90;;;;;;5431277;26;20248;-88
2024/04/12 02:41:13;;;;;;;5.43;4.10;;;4.30;99.90;;;;;;5424434;26;20237;-85
2024/04/12 02:43:42;;;;;;;5.47;4.03;;;4.20;99.90;;;;;;5425731;26;20640;-83
2024/04/12 02:46:11;;;;;;;6.10;3.90;;;4.20;99.90;;;;;;5423846;26;20264;-87
2024/04/12 02:48:43;;;;;;;5.13;3.67;;;4.20;99.90;;;;;;5454334;26;20578;-85
2024/04/12 02:51:13;;;;;;;5.67;3.60;;;4.10;99.90;;;;;;5432651;26;20229;-86
2024/04/12 02:53:42;;;;;;;5.70;4.07;;;4.20;99.90;;;;;;5426029;26;20330;-86
2024/04/12 02:56:11;;;;;;;5.97;3.87;;;4.10;99.90;;;;;;5429020;26;20218;-84
2024/04/12 02:58:41;;;;;;;5.30;4.20;;;4.20;99.90;;;;;;5439349;26;20295;-84
2024/04/12 03:01:11;;;;;;;5.53;3.87;;;4.20;99.90;;;;;;5439291;26;20231;-84
2024/04/12 03:03:45;;;;;;;7.13;3.63;;;4.00;99.90;;;;;;5437637;26;20225;-87
2024/04/12 03:06:11;;;;;;;5.70;3.97;;;4.00;99.90;;;;;;5431592;26;20236;-84
2024/04/12 03:08:40;;;;;;;6.50;3.90;;;4.00;99.90;;;;;;5434128;26;20295;-84
2024/04/12 03:11:13;;;;;;;6.57;4.00;;;3.90;99.90;;;;;;5430105;26;20335;-84
2024/04/12 03:13:44;;;;;;;4.43;3.97;;;;;;;;;;5424948;26;20696;-86
2024/04/12 03:16:13;;;;;;;5.67;4.00;;;3.90;99.90;;;;;;5428110;26;20214;-84
2024/04/12 03:18:44;;;;;;;5.57;3.87;;;3.90;99.90;;;;;;5430397;26;20214;-86
2024/04/12 03:21:14;;;;;;;5.53;4.10;;;3.90;99.90;;;;;;5422715;26;20249;-87
2024/04/12 03:23:45;;;;;;;7.87;4.93;;;3.80;99.90;;;;;;5425026;26;20268;-86
2024/04/12 03:26:12;;;;;;;5.70;4.70;;;3.80;99.90;;;;;;5431981;26;20244;-87
2024/04/12 03:28:41;;;;;;;6.73;4.53;;;3.80;99.90;;;;;;5428538;26;20255;-87
2024/04/12 03:31:07;;;;;;;7.53;5.00;;;3.80;99.90;;;;;;5423156;26;20688;-86
2024/04/12 03:33:42;;;;;;;7.53;5.10;;;3.80;99.90;;;;;;5425132;26;20228;-86
2024/04/12 03:36:39;;;;;;;6.90;4.50;;;3.80;99.90;;;;;;5424394;26;20716;-84
2024/04/12 03:39:30;;;;;;;5.23;4.67;;;3.80;99.90;;;;;;5421911;26;20237;-86
2024/04/12 03:41:58;;;;;;;6.43;4.67;;;3.80;99.90;;;;;;5423800;26;20226;-84
2024/04/12 03:44:31;;;;;;;7.57;5.17;;;3.70;99.90;;;;;;5421669;26;20252;-84
2024/04/12 03:47:00;;;;;;;7.43;5.10;;;3.70;99.90;;;;;;5425748;26;20245;-86
2024/04/12 03:49:31;;;;;;;8.47;5.87;;;3.70;99.90;;;;;;5427035;26;20291;-86
2024/04/12 03:51:57;;;;;;;9.63;5.40;;;3.80;99.90;;;;;;5427954;26;20251;-87
2024/04/12 03:54:28;;;;;;;6.83;5.00;;;3.80;99.90;;;;;;5428247;26;20265;-86
2024/04/12 03:56:56;;;;;;;9.03;5.57;;;3.90;99.90;;;;;;5426805;26;20710;-86
2024/04/12 03:59:27;;;;;;;11.43;6.20;;;3.80;99.90;;;;;;5427847;26;20322;-86
2024/04/12 04:01:56;;;;;;;8.43;5.77;;;3.80;99.90;;;;;;5428204;26;20178;-86
2024/04/12 04:04:25;;;;;;;9.37;5.20;;;3.90;99.90;;;;;;5426366;26;20720;-86
2024/04/12 04:06:58;;;;;;;9.03;5.50;;;3.90;99.90;;;;;;5428231;26;20272;-86
2024/04/12 04:09:25;;;;;;;8.30;5.50;;;3.90;99.90;;;;;;5429471;26;20322;-85
2024/04/12 04:11:55;;;;;;;7.43;5.63;;;3.80;99.90;;;;;;5426201;26;20237;-85
2024/04/12 04:14:25;;;;;;;10.07;5.40;;;3.80;99.90;;;;;;5428366;26;20736;-86
2024/04/12 04:16:56;;;;;;;8.10;5.30;;;3.80;99.90;;;;;;5428444;26;20225;-84
2024/04/12 04:19:30;;;;;;;8.73;5.47;;;3.80;99.90;;;;;;5427168;26;20190;-85
2024/04/12 04:22:04;;;;;;;8.93;6.40;;;3.80;99.90;;;;;;5427793;26;20182;-86
2024/04/12 04:24:30;;;;;;;8.93;6.20;;;;;;;;;;5426223;26;20339;-86
2024/04/12 04:26:59;;;;;;;7.03;5.63;;;3.80;99.90;;;;;;5426155;26;20566;-86
2024/04/12 04:29:26;;;;;;;9.33;5.50;;;3.80;99.90;;;;;;5426675;26;20252;-85
2024/04/12 04:31:56;;;;;;;6.33;5.00;;;3.70;99.90;;;;;;5429347;26;20330;-84
2024/04/12 04:34:25;;;;;;;6.73;5.20;;;3.70;99.90;;;;;;5428348;26;20322;-85
2024/04/12 04:36:56;;;;;;;8.67;5.60;;;3.70;99.90;;;;;;5432829;26;20237;-82
2024/04/12 04:39:25;;;;;;;9.03;6.00;;;3.70;99.90;;;;;;5440108;26;20249;-83
2024/04/12 04:41:55;;;;;;;9.27;6.03;;;3.70;99.90;;;;;;5425820;26;20375;-87
2024/04/12 04:44:22;;;;;;;7.97;6.00;;;3.80;99.90;;;;;;5432752;26;20320;-85
2024/04/12 04:46:51;;;;;;;7.30;5.90;;;3.80;99.90;;;;;;5440532;26;20225;-84
2024/04/12 04:49:19;;;;;;;8.93;6.00;;;3.80;99.90;;;;;;5430619;26;20241;-87
2024/04/12 04:51:48;;;;;;;7.60;5.77;;;;;;;;;;5426297;26;20298;-87
2024/04/12 04:54:16;;;;;;;7.93;5.97;;;3.80;99.90;;;;;;5424979;26;20229;-88
2024/04/12 04:56:48;;;;;;;9.20;6.20;;;;;;;;;;5428591;26;20594;-88
2024/04/12 04:59:16;;;;;;;11.67;6.13;;;3.80;99.90;;;;;;5428478;26;20504;-88
2024/04/12 05:01:48;;;;;;;9.20;6.20;;;3.80;99.90;;;;;;5425623;26;20225;-88
2024/04/12 05:04:15;;;;;;;6.80;5.87;;;3.90;99.90;;;;;;5427314;26;20178;-88
2024/04/12 05:06:47;;;;;;;8.57;5.87;;;3.90;99.90;;;;;;5424827;26;20253;-88
2024/04/12 05:09:13;;;;;;;11.87;5.97;;;4.00;99.90;;;;;;5425463;26;20217;-85
2024/04/12 05:11:42;;;;;;;12.67;6.93;;;4.10;99.90;;;;;;5427599;26;20245;-86
2024/04/12 05:14:14;;;;;;;8.27;5.67;;;4.10;99.90;;;;;;5430427;26;20225;-89
2024/04/12 05:16:44;;;;;;;6.60;5.83;;;4.20;99.90;;;;;;5425977;26;20724;-89
2024/04/12 05:19:12;;;;;;;8.20;5.87;;;;;;;;;;5436570;26;20178;-87
2024/04/12 05:21:42;;;;;;;9.93;6.00;;;4.30;99.90;;;;;;5427547;26;20281;-88
2024/04/12 05:24:09;;;;;;;8.30;5.93;;;4.30;99.90;;;;;;5430083;26;20170;-90
2024/04/12 05:26:41;;;;;;;8.87;6.00;;;4.40;99.90;;;;;;5427578;26;20218;-88
2024/04/12 05:29:11;;;;;;;9.23;5.83;;;4.60;99.90;;;;;;5425869;26;20221;-88
2024/04/12 05:31:42;;;;;;;7.87;5.60;;;;;;;;;;5428335;26;20205;-87
2024/04/12 05:34:11;;;;;;;7.67;5.60;;;4.70;99.90;;;;;;5427943;26;20728;-86
2024/04/12 05:43:41;;;;;;;;;;;;;;;;;;;;;
2024/04/12 06:09:05;;;;;;;7.10;4.40;;;;;;;;;;5293969;26;20359;-85
2024/04/12 06:21:45;;;;;;;6.07;3.83;;;;;;;;;;5268952;27;20346;-82
2024/04/12 06:34:22;;;;;;;5.23;4.40;;;;;;;;;;5315652;26;20288;-85
2024/04/12 06:47:00;;;;;;;4.93;3.60;;;;;;;;;;5410665;26;20233;-84
2024/04/12 06:53:12;;;;;;;6.40;3.80;;;;;;;;;;5342719;26;20555;-82
2024/04/12 06:55:53;;;;;;;5.93;3.53;;;;;;;;;;5415878;25;20252;-82
2024/04/12 06:58:28;;;;;;;5.50;3.40;;;;;;;;;;5428669;26;20291;-82
2024/04/12 07:01:14;;;;;;;6.67;3.47;;;;;;;;;;5428119;26;20221;-83
2024/04/12 07:03:47;;;;;;;6.03;4.00;;;;;;;;;;5424519;26;20282;-86
2024/04/12 07:06:34;;;;;;;7.80;3.90;;;;;;;;;;5423838;26;20413;-86
2024/04/12 07:09:15;;;;;;;4.90;2.97;;;;;;;;;;5415548;26;20312;-84
2024/04/12 07:12:05;;;;;;;5.27;3.57;;;;;;;;;;5414540;26;20212;-82
2024/04/12 07:14:56;;;;;;;5.23;3.20;;;;;;;;;;5409021;26;20221;-84
2024/04/12 07:17:51;;;;;;;6.37;3.83;;;;;;;;;;5416763;26;20221;-83
2024/04/12 07:20:36;;;;;;;5.50;3.20;;;;;;;;;;5416399;26;20269;-84
2024/04/12 07:23:31;;;;;;;4.80;3.07;;;;;;;;;;5415742;26;20182;-83
2024/04/12 07:26:03;;;;;;;5.27;3.50;;;;;;;;;;5416293;26;20226;-84
2024/04/12 07:28:48;;;;;;;4.83;3.10;;;;;;;;;;5412490;26;20256;-82
2024/04/12 07:31:44;;;;;;;6.90;3.70;;;;;;;;;;5413375;26;20259;-85
2024/04/12 07:34:48;;;;;;;5.50;3.37;;;;;;;;;;5413346;26;20724;-85
2024/04/12 07:37:27;;;;;;;7.10;3.50;;;;;;;;;;5448787;21;20264;-81
2024/04/12 07:42:58;;;;;;;5.43;3.40;;;;;;;;;;5462811;26;20266;-84
2024/04/12 07:45:42;;;;;;;5.60;3.27;;;;;;;;;;5463716;26;20272;-84
2024/04/12 07:51:30;;;;;;;6.07;3.47;;;;;;;;;;5419275;26;20217;-83
2024/04/12 08:12:49;;;;;;;6.50;4.10;;;;;;;;;;5407178;26;20256;-83
2024/04/12 08:16:09;;;;;;;;;;;;;;;;;;;;;
2024/04/12 08:40:48;;;;;;;5.60;3.50;;;15.50;99.90;;;;;;5158920;27;20404;-84
2024/04/12 08:43:41;;;;;;;5.10;4.18;;;;;;;;;;5230011;26;20220;-82
2024/04/12 08:46:51;;;;;;;6.65;4.18;;;;;;;;;;5410797;26;20230;-84
2024/04/12 08:49:45;;;;;;;9.10;4.63;;;;;;;;;;5412088;26;20230;-84
2024/04/12 08:55:35;;;;;;;6.50;4.50;;;;;;;;;;5363097;26;20339;-83
2024/04/12 08:58:24;;;;;;;7.65;5.03;;;;;;;;;;5413975;26;20269;-82
2024/04/12 09:01:40;;;;;;;7.75;4.90;;;;;;;;;;5410317;26;20221;-83
2024/04/12 09:08:28;;;;;;;8.93;4.70;;;;;;;;;;5434877;26;20267;-83
2024/04/12 09:11:19;;;;;;;8.10;4.50;;;;;;;;;;5423344;26;20237;-85
2024/04/12 09:14:09;;;;;;;10.50;5.57;;;;;;;;;;5415905;26;20301;-81
2024/04/12 09:17:29;;;;;;;5.63;5.00;;;;;;;;;;5413474;26;20264;-82
2024/04/12 09:20:29;;;;;;;6.97;5.57;;;;;;;;;;5414045;26;20245;-84
2024/04/12 09:23:37;;;;;;;6.47;4.95;;;;;;;;;;5313808;26;20217;-85
2024/04/12 09:27:33;;;;;;;9.00;5.93;;;18.60;99.90;;;;;;5415130;26;20257;-83
2024/04/12 09:33:41;;;;;;;6.45;5.05;;;;;;;;;;5276863;26;20281;-84
2024/04/12 09:47:00;;;;;;;;;;;;;;;;;;;;;
2024/04/12 10:39:55;;;;;;;6.40;3.80;;;;;;;;;;5393324;26;20308;-80
2024/04/12 10:42:35;;;;;;;5.57;3.88;;;;;;;;;;5425292;26;20348;-84
2024/04/12 10:48:38;;;;;;;5.22;3.85;;;;;;;;;;5422928;26;20303;-80
2024/04/12 10:52:14;;;;;;;6.45;3.47;;;;;;;;;;5388262;26;20225;-84
2024/04/12 10:55:01;;;;;;;5.57;2.88;;;21.80;84.30;;;;;;5420836;26;20216;-80
2024/04/12 11:01:16;;;;;;;7.50;3.08;;;;;;;;;;5404185;26;20248;-86
2024/04/12 11:03:56;;;;;;;4.90;3.03;;;;;;;;;;5403672;26;20253;-84
2024/04/12 11:06:56;;;;;;;5.05;3.00;;;;;;;;;;5434347;26;20280;-85
2024/04/12 11:09:38;;;;;;;4.68;2.75;;;;;;;;;;5397954;26;20225;-82
2024/04/12 11:12:21;;;;;;;5.55;2.85;;;;;;;;;;5397494;26;20262;-84
2024/04/12 11:35:56;;;;;;;5.70;3.63;;;21.20;76.50;;;;;;5389234;26;20237;-82
2024/04/12 11:41:25;;;;;;;7.72;3.33;;;;;;;;;;5284886;26;20254;-84
2024/04/12 11:43:52;;;;;;;5.22;2.78;;;;;;;;;;5386530;26;20226;-83
2024/04/12 11:46:34;;;;;;;3.72;2.40;;;;;;;;;;5389805;26;20249;-83
2024/04/12 11:49:25;;;;;;;6.28;2.47;;;;;;;;;;5404673;26;20224;-82
2024/04/12 11:52:18;;;;;;;4.45;2.92;;;;;;;;;;5390006;26;20218;-83
2024/04/12 11:54:59;;;;;;;5.15;3.30;;;;;;;;;;5389960;26;20221;-80
2024/04/12 11:57:41;;;;;;;5.80;3.58;;;;;;;;;;5391018;26;20567;-83
2024/04/12 12:03:24;;;;;;;5.97;3.60;;;;;;;;;;5386558;26;20336;-84
2024/04/12 12:09:11;;;;;;;4.88;3.45;;;;;;;;;;5390962;26;20712;-83
2024/04/12 12:12:00;;;;;;;4.65;3.45;;;;;;;;;;5425625;26;20264;-82
2024/04/12 12:15:00;;;;;;;5.30;3.50;;;;;;;;;;5425781;26;20287;-84
2024/04/12 12:17:52;;;;;;;6.13;3.50;;;;;;;;;;5426285;26;20341;-82
2024/04/12 12:20:45;;;;;;;5.57;3.88;;;;;;;;;;5394867;26;20252;-82
2024/04/12 12:23:21;;;;;;;7.38;3.58;;;;;;;;;;5425879;26;20230;-83
2024/04/12 12:32:34;;;;;;;6.53;3.85;;;;;;;;;;5396577;26;20305;-82
2024/04/12 12:35:11;;;;;;;4.78;3.75;;;;;;;;;;5394504;26;20229;-83
2024/04/12 12:37:55;;;;;;;6.13;3.70;;;;;;;;;;5392611;26;20249;-81
2024/04/12 12:40:49;;;;;;;6.65;4.18;;;;;;;;;;5393103;26;20339;-81
2024/04/12 12:47:20;;;;;;;7.22;3.92;;;;;;;;;;5424148;26;20532;-84
2024/04/12 12:56:54;;;;;;;;;;;;;;;;;;;;;
2024/04/12 12:59:54;;;;;;;6.38;3.97;;;;;;;;;;5394009;26;20245;-80
2024/04/12 13:03:25;;;;;;;6.50;4.20;;;;;;;;;;5393272;26;20265;-83
2024/04/12 13:06:21;;;;;;;5.18;4.40;;;;;;;;;;5392349;26;20238;-82
2024/04/12 13:12:02;;;;;;;6.10;5.03;;;;;;;;;;5394558;26;20257;-82
2024/04/12 13:26:22;;;;;;;9.48;5.40;;;27.10;60.00;;;;;;5215827;27;20338;-85
2024/04/12 13:29:46;;;;;;;9.20;5.40;;;;;;;;;;5150625;27;20223;-85
2024/04/12 13:38:55;;;;;;;9.75;5.60;;;;;;;;;;5425808;26;20256;-83
2024/04/12 13:41:34;;;;;;;11.45;6.40;;;;;;;;;;5423720;26;20262;-83
2024/04/12 13:50:46;;;;;;;8.13;5.97;;;;;;;;;;5392464;26;20221;-84
2024/04/12 13:59:19;;;;;;;9.70;5.93;;;;;;;;;;5381381;26;20260;-84
2024/04/12 14:02:32;;;;;;;9.88;5.80;;;;;;;;;;5393426;26;20580;-84
2024/04/12 14:05:20;;;;;;;7.28;4.88;;;;;;;;;;5294398;26;20233;-83
2024/04/12 14:08:48;;;;;;;8.63;5.18;;;;;;;;;;5376174;26;20264;-81
2024/04/12 14:17:23;;;;;;;8.40;4.88;;;28.60;42.70;;;;;;5456268;21;20300;-80
2024/04/12 14:19:50;;;;;;;7.78;3.90;;;29.20;42.70;;;;;;5383757;26;20226;-78
2024/04/12 14:22:19;;;;;;;6.63;3.88;;;28.20;43.70;;;;;;5386574;26;20268;-78
2024/04/12 14:25:01;;;;;;;11.75;3.97;;;29.00;43.50;;;;;;5386782;26;20223;-78
2024/04/12 14:27:30;;;;;;;9.98;4.03;;;29.70;40.20;;;;;;5386288;26;20226;-78
2024/04/12 14:29:56;;;;;;;11.15;4.03;;;30.10;40.70;;;;;;5386020;26;20222;-77
2024/04/12 14:32:25;;;;;;;5.43;3.55;;;29.90;40.00;;;;;;5384722;26;20565;-76
2024/04/12 14:34:52;;;;;;;7.63;3.42;;;29.80;39.80;;;;;;5412165;26;20253;-78
2024/04/12 14:37:22;;;;;;;7.78;3.10;;;30.10;39.60;;;;;;5384414;26;20222;-74
2024/04/12 14:39:50;;;;;;;4.03;2.95;;;30.60;39.00;;;;;;5383632;26;20214;-75
2024/04/12 14:42:20;;;;;;;5.82;2.85;;;30.90;38.10;;;;;;5383659;26;20222;-74
2024/04/12 14:44:46;;;;;;;7.10;3.33;;;30.80;38.50;;;;;;5384354;26;20652;-75
2024/04/12 14:47:15;;;;;;;7.05;3.10;;;29.50;39.50;;;;;;5383300;26;20277;-75
2024/04/12 14:49:41;;;;;;;7.03;3.40;;;29.70;39.10;;;;;;5383398;26;20234;-76
2024/04/12 14:52:11;;;;;;;4.35;3.00;;;29.90;39.00;;;;;;5383757;26;20319;-75
2024/04/12 14:54:39;;;;;;;6.05;2.78;;;28.90;41.00;;;;;;5381707;26;20268;-75
2024/04/12 14:57:10;;;;;;;4.78;2.70;;;29.10;39.00;;;;;;5383970;26;20568;-74
2024/04/12 14:59:37;;;;;;;6.60;2.65;;;29.80;39.40;;;;;;5383150;26;20698;-75
2024/04/12 15:02:06;;;;;;;5.13;2.72;;;28.90;39.80;;;;;;5381205;26;20234;-75
2024/04/12 15:48:37;;;;;;;5.80;2.38;;;22.20;50.40;;;;;;5424451;26;20229;-75
2024/04/12 15:51:07;;;;;;;4.03;2.08;;;22.20;50.40;;;;;;5390745;26;20308;-76
2024/04/12 15:53:35;;;;;;;3.13;1.80;;;22.20;50.30;;;;;;5421678;26;20229;-76
2024/04/12 16:12:35;;;;;;;8.65;2.47;;;21.80;53.90;;;;;;5425965;26;20279;-75
2024/04/12 16:15:04;;;;;;;4.30;2.10;;;21.90;52.40;;;;;;5423754;26;20742;-73
2024/04/12 16:17:35;;;;;;;4.95;2.00;;;21.80;52.20;;;;;;5424494;26;20230;-75
2024/04/12 16:20:04;;;;;;;5.13;2.40;;;21.70;53.30;;;;;;5423690;26;20190;-75
2024/04/12 16:22:30;;;;;;;5.40;2.17;;;21.70;53.10;;;;;;5423450;26;20217;-75
2024/04/12 16:24:58;;;;;;;6.93;3.00;;;21.50;54.20;;;;;;5392752;26;20349;-76
2024/04/12 16:27:25;;;;;;;3.28;2.08;;;;;;;;;;5423286;26;20221;-75
2024/04/12 16:29:54;;;;;;;5.80;2.10;;;21.30;53.70;;;;;;5423481;26;20225;-77
2024/04/12 16:32:20;;;;;;;6.10;2.50;;;21.10;54.50;;;;;;5424201;26;20703;-75
2024/04/12 16:34:57;;;;;;;5.75;2.33;;;21.10;55.00;;;;;;5429237;26;20229;-76
2024/04/12 16:37:23;;;;;;;4.60;2.40;;;21.00;53.80;;;;;;5396621;26;20233;-76
2024/04/12 16:39:52;;;;;;;4.22;2.10;;;20.70;54.90;;;;;;5393940;26;20269;-75
2024/04/12 16:42:18;;;;;;;4.72;2.20;;;20.70;55.00;;;;;;5433705;26;20260;-75
2024/04/12 16:44:46;;;;;;;5.75;2.13;;;20.60;55.40;;;;;;5437063;26;20222;-75
2024/04/12 16:47:13;;;;;;;5.03;2.15;;;20.50;54.60;;;;;;5394880;26;20241;-77
2024/04/12 16:49:41;;;;;;;3.50;2.05;;;20.40;55.20;;;;;;5426624;26;20218;-76
2024/04/12 16:52:10;;;;;;;8.13;2.10;;;20.40;55.70;;;;;;5426302;26;20277;-76
2024/04/12 16:54:39;;;;;;;6.10;1.88;;;20.30;56.90;;;;;;5425348;26;20568;-74
2024/04/12 16:57:06;;;;;;;4.30;1.88;;;20.10;55.40;;;;;;5425502;26;20286;-75
2024/04/12 16:59:35;;;;;;;5.00;1.80;;;;;;;;;;5394539;26;20245;-75
2024/04/12 17:02:01;;;;;;;3.15;1.58;;;20.10;55.90;;;;;;5424451;26;20749;-76
2024/04/12 17:04:29;;;;;;;5.30;1.95;;;20.00;56.00;;;;;;5395186;26;20260;-76
2024/04/12 17:06:55;;;;;;;4.18;2.70;;;20.00;56.80;;;;;;5422966;26;20269;-76
2024/04/12 17:09:26;;;;;;;4.43;1.90;;;19.90;57.20;;;;;;5393954;26;20233;-75
2024/04/12 17:11:53;;;;;;;3.35;1.88;;;19.90;57.20;;;;;;5391850;26;20240;-75
2024/04/12 17:14:21;;;;;;;3.88;1.60;;;19.70;57.30;;;;;;5401937;26;20644;-76
2024/04/12 17:16:48;;;;;;;2.90;1.77;;;19.50;57.30;;;;;;5404065;26;20272;-75
2024/04/12 17:19:17;;;;;;;5.40;1.55;;;19.50;57.70;;;;;;5431799;26;20225;-75
2024/04/12 17:21:43;;;;;;;4.65;1.77;;;19.50;57.80;;;;;;5426059;26;20221;-76
2024/04/12 17:24:14;;;;;;;4.30;1.85;;;19.50;58.30;;;;;;5423518;26;20326;-76
2024/04/12 17:26:43;;;;;;;8.18;2.50;;;19.40;58.40;;;;;;5391142;26;20275;-75
2024/04/12 17:29:12;;;;;;;10.30;3.45;;;19.30;59.00;;;;;;5392604;26;20229;-75
2024/04/12 17:31:38;;;;;;;10.85;2.85;;;19.20;59.40;;;;;;5391149;26;20229;-76
2024/04/12 17:34:07;;;;;;;6.80;2.45;;;19.10;60.60;;;;;;5422253;26;20261;-75
2024/04/12 17:36:32;;;;;;;3.80;1.83;;;19.00;60.50;;;;;;5422150;26;20346;-75
2024/04/12 17:39:08;;;;;;;6.55;2.30;;;18.70;61.00;;;;;;5391750;26;20236;-75
2024/04/12 17:41:37;;;;;;;8.35;3.22;;;18.70;61.90;;;;;;5423274;26;20177;-76
2024/04/12 17:44:09;;;;;;;10.38;3.85;;;18.20;63.40;;;;;;5423441;26;20217;-75
2024/04/12 17:46:35;;;;;;;4.15;2.40;;;18.10;64.30;;;;;;5432206;26;20230;-75
2024/04/12 17:49:04;;;;;;;11.93;3.30;;;17.70;65.30;;;;;;5401464;26;20229;-75
2024/04/12 17:51:30;;;;;;;7.90;3.08;;;17.70;65.90;;;;;;5431027;26;20225;-75
2024/04/12 17:53:59;;;;;;;3.50;1.50;;;17.40;67.10;;;;;;5426882;26;20307;-76
2024/04/12 17:56:25;;;;;;;5.00;1.50;;;17.00;71.90;;;;;;5422137;26;20589;-77
2024/04/12 17:58:54;;;;;;;2.92;1.40;;;16.90;72.70;;;;;;5422065;26;20225;-77
2024/04/12 18:01:23;;;;;;;4.63;2.13;;;16.40;78.00;;;;;;5422752;26;20260;-76
2024/04/12 18:03:52;;;;;;;3.05;1.67;;;16.40;78.20;;;;;;5419938;26;20213;-76
2024/04/12 18:06:18;;;;;;;2.97;1.60;;;;;;;;;;5423068;26;20221;-78
2024/04/12 18:08:46;;;;;;;5.45;1.73;;;15.70;88.70;;;;;;5422178;26;20252;-76
2024/04/12 18:11:13;;;;;;;3.38;1.40;;;15.50;90.50;;;;;;5422027;26;20225;-76
2024/04/12 18:13:42;;;;;;;2.67;1.33;;;15.30;92.00;;;;;;5422211;26;20225;-77
2024/04/12 18:16:10;;;;;;;2.67;1.60;;;;;;;;;;5423751;26;20815;-77
2024/04/12 18:18:41;;;;;;;2.05;1.40;;;14.90;97.20;;;;;;5422679;26;20221;-77
2024/04/12 18:21:08;;;;;;;4.95;1.50;;;14.80;97.50;;;;;;5391066;26;20261;-76
2024/04/12 18:23:37;;;;;;;2.45;1.40;;;14.50;99.30;;;;;;5422638;26;20633;-77
2024/04/12 18:26:03;;;;;;;2.13;1.50;;;14.30;99.90;;;;;;5423330;26;20237;-77
2024/04/12 18:28:32;;;;;;;1.90;1.58;;;14.10;99.90;;;;;;5421979;26;20225;-77
2024/04/12 18:30:59;;;;;;;3.50;1.92;;;;;;;;;;5418571;20;20756;-80
2024/04/12 18:33:31;;;;;;;3.55;1.75;;;14.00;99.90;;;;;;5383445;26;20650;-84
2024/04/12 18:36:11;;;;;;;2.35;1.60;;;13.70;99.90;;;;;;5410833;26;20329;-84
2024/04/12 18:46:55;;;;;;;3.95;1.58;;;13.10;99.90;;;;;;5391207;26;20237;-85
2024/04/12 18:49:24;;;;;;;3.22;1.60;;;12.90;99.90;;;;;;5399188;25;20234;-79
2024/04/12 18:51:55;;;;;;;2.60;1.67;;;12.80;99.90;;;;;;5430048;25;20210;-82
2024/04/12 18:54:23;;;;;;;2.15;1.38;;;12.70;99.90;;;;;;5429429;25;20174;-85
2024/04/12 18:56:49;;;;;;;1.80;1.33;;;12.60;99.90;;;;;;5390364;26;20298;-83
2024/04/12 18:59:19;;;;;;;2.72;1.63;;;12.50;99.90;;;;;;5390014;26;20237;-86
2024/04/12 19:01:46;;;;;;;4.43;1.60;;;12.40;99.90;;;;;;5414297;26;20685;-85
2024/04/12 19:04:16;;;;;;;4.10;1.90;;;;;;;;;;5414337;25;20221;-86
2024/04/12 19:06:46;;;;;;;3.73;1.67;;;12.30;99.90;;;;;;5415483;25;20221;-84
2024/04/12 19:09:20;;;;;;;5.27;1.83;;;12.20;99.90;;;;;;5422258;26;20202;-82
2024/04/12 19:11:46;;;;;;;3.95;1.60;;;12.20;99.90;;;;;;5386846;26;20225;-84
2024/04/12 19:14:15;;;;;;;1.87;1.40;;;;;;;;;;5385676;26;20229;-84
2024/04/12 19:16:41;;;;;;;5.23;1.57;;;12.10;99.90;;;;;;5418235;25;20244;-85
2024/04/12 19:19:11;;;;;;;4.07;1.67;;;;;;;;;;5416011;25;20222;-85
2024/04/12 19:21:37;;;;;;;4.23;1.80;;;12.00;99.90;;;;;;5416034;26;20607;-83
2024/04/12 19:24:06;;;;;;;2.73;1.50;;;12.00;99.90;;;;;;5415944;25;20252;-84
2024/04/12 19:27:02;;;;;;;2.47;1.77;;;11.90;99.90;;;;;;5417971;25;20257;-84
2024/04/12 19:36:06;;;;;;;2.27;1.67;;;11.60;99.90;;;;;;5415969;25;20241;-85
2024/04/12 19:38:33;;;;;;;4.33;1.70;;;11.60;99.90;;;;;;5420075;25;20261;-82
2024/04/12 19:41:03;;;;;;;4.37;2.40;;;11.50;99.90;;;;;;5420171;25;20241;-85
2024/04/12 19:43:29;;;;;;;3.00;1.77;;;11.40;99.90;;;;;;5419566;25;20218;-83
2024/04/12 19:51:27;;;;;;;2.37;1.70;;;11.30;99.90;;;;;;5388129;26;20237;-79
2024/04/12 19:53:54;;;;;;;2.77;1.60;;;;;;;;;;5420519;25;20270;-86
2024/04/12 19:56:24;;;;;;;3.57;1.73;;;11.10;99.90;;;;;;5419426;25;20315;-83
2024/04/12 19:58:51;;;;;;;2.00;1.50;;;11.10;99.90;;;;;;5385257;25;20218;-84
2024/04/12 20:01:20;;;;;;;2.63;1.60;;;;;;;;;;5415788;25;20217;-81
2024/04/12 20:03:46;;;;;;;3.83;2.17;;;;;;;;;;5419207;25;20218;-82
2024/04/12 20:06:15;;;;;;;3.43;1.83;;;10.90;99.90;;;;;;5398468;26;20225;-82